Flight Track Log - Related Links

Times and Time Zones

All times are in EST time to prevent confusion due to time zone crossing. See the DAL3982 flight status page for this flight to view local times or setup timezone preferences in your user account.


Time Position Orientation Groundspeed Altitude Reporting Facility
EST Latitude Longitude Course Direction KTS MPH feet Rate Location/Type
Sun 07:43:44 AM 39.7000 -86.3000 360° North 138 159 1,600  Level Indianapolis TRACON
Sun 07:43:50 AM 39.7000 -86.3000 240° Southwest 145 167 1,900 1,091 Climbing Indianapolis TRACON
Sun 07:44:39 AM 39.6797 -86.3447 240° Southwest 142 163 2,600 1,243 Climbing Indianapolis Center
Sun 07:45:41 AM 39.7350 -86.3817 333° Northwest 208 239 4,200 2,341 Climbing Indianapolis Center
Sun 07:46:42 AM 39.8078 -86.4039 347° North 248 285 7,400 2,902 Climbing Indianapolis Center
Sun 07:47:43 AM 39.8803 -86.4275 346° North 260 299 10,100 1,918 Climbing Indianapolis Center
Sun 07:48:44 AM 39.9558 -86.4517 346° North 275 316 11,300 1,512 Climbing Indianapolis Center
Sun 07:49:46 AM 40.0456 -86.4797 347° North 321 369 13,200 1,756 Climbing Indianapolis Center
Sun 07:50:47 AM 40.1347 -86.5097 346° North 332 382 14,900 1,636 Climbing Indianapolis Center
Sun 07:51:25 AM 40.1772 -86.5553 321° Northwest 343 395 15,900 1,636 Climbing Chicago Center
Sun 07:52:26 AM 40.2533 -86.6567 315° West 330 380 17,600 1,475 Climbing Chicago Center
Sun 07:53:27 AM 40.3178 -86.7442 314° West 334 384 18,900 1,279 Climbing Chicago Center
Sun 07:54:28 AM 40.3828 -86.8333 314° West 338 389 20,200 1,122 Climbing Chicago Center
Sun 07:55:30 AM 40.4500 -86.9250 314° West 349 402 21,200 976 Climbing Chicago Center
Sun 07:56:31 AM 40.5200 -87.0186 315° West 359 413 22,200 984 Climbing Chicago Center
Sun 07:57:32 AM 40.6058 -87.0925 327° Northwest 385 443 23,200 1,024 Climbing Chicago Center
Sun 07:58:34 AM 40.7133 -87.1442 340° North 382 440 24,300 1,024 Climbing Chicago Center
Sun 07:59:35 AM 40.8133 -87.1892 341° North 382 440 25,300 984 Climbing Chicago Center
Sun 08:00:36 AM 40.9133 -87.2353 341° North 382 440 26,300 976 Climbing Chicago Center
Sun 08:01:38 AM 41.0136 -87.2811 341° North 384 442 27,300 976 Climbing Chicago Center
Sun 08:02:39 AM 41.1122 -87.3261 341° North 378 435 28,300 1,082 Climbing Chicago Center
Sun 08:03:40 AM 41.2297 -87.3806 341° North 376 433 29,500 829 Climbing Chicago Center
Sun 08:04:42 AM 41.3242 -87.4250 341° North 368 423 30,000 488 Climbing Chicago Center
Sun 08:05:43 AM 41.4206 -87.4694 341° North 368 423 30,500 443 Climbing Chicago Center
Sun 08:06:44 AM 41.5178 -87.5161 340° North 372 428 30,900 341 Climbing Chicago Center
Sun 08:07:46 AM 41.6169 -87.5617 341° North 379 436 31,200 293 Climbing Chicago Center
Sun 08:08:47 AM 41.7181 -87.6100 340° North 386 444 31,500 293 Climbing Chicago Center
Sun 08:09:49 AM 41.8406 -87.6672 341° North 391 450 31,800 244 Climbing Chicago Center
Sun 08:10:50 AM 41.9425 -87.7144 341° North 391 450 32,000 98 Climbing Chicago Center
Sun 08:11:51 AM 42.0458 -87.7642 340° North 396 456 32,000  Level Chicago Center
Sun 08:12:53 AM 42.1536 -87.8153 341° North 408 470 32,000  Level Chicago Center
Sun 08:13:54 AM 42.2597 -87.8667 340° North 409 471 32,000  Level Chicago Center
Sun 08:14:56 AM 42.3719 -87.9206 340° North 415 478 32,000  Level Chicago Center
Sun 08:15:57 AM 42.4811 -87.9742 340° North 418 481 32,000  Level Chicago Center
Sun 08:16:59 AM 42.5900 -88.0269 340° North 416 479 32,000  Level Chicago Center
Sun 08:18:00 AM 42.7000 -88.0803 340° North 419 482 32,000  Level Chicago Center
Sun 08:19:02 AM 42.8317 -88.1444 340° North 421 484 32,000  Level Chicago Center
Sun 08:20:03 AM 42.9408 -88.1986 340° North 420 483 32,000  Level Chicago Center
Sun 08:21:05 AM 43.0500 -88.2528 340° North 418 481 32,000  Level Chicago Center
Sun 08:22:06 AM 43.1581 -88.3103 339° North 418 481 32,000  Level Chicago Center
Sun 08:23:07 AM 43.2642 -88.3683 338° Northwest 413 475 32,000  Level Chicago Center
Sun 08:24:10 AM 43.3692 -88.4319 336° Northwest 420 483 32,000  Level Chicago Center
Sun 08:25:10 AM 43.4517 -88.5625 311° West 419 482 32,000  Level Chicago Center
Sun 08:26:12 AM 43.5064 -88.6864 301° West 399 459 32,000  Level Chicago Center
Sun 08:27:13 AM 43.5658 -88.8161 302° West 401 461 32,000  Level Chicago Center
Sun 08:28:15 AM 43.6253 -88.9464 302° West 401 461 32,000  Level Chicago Center
Sun 08:29:16 AM 43.6839 -89.0767 302° West 402 463 32,000  Level Chicago Center
Sun 08:30:18 AM 43.7544 -89.2319 302° West 398 458 32,000  Level Chicago Center
Sun 08:31:19 AM 43.8128 -89.3628 302° West 400 460 32,000  Level Chicago Center
Sun 08:32:20 AM 43.8717 -89.4922 302° West 399 459 32,000  Level Chicago Center
Sun 08:33:22 AM 43.9297 -89.6244 301° West 400 460 32,000  Level Chicago Center
Sun 08:34:23 AM 43.9881 -89.7558 302° West 401 461 32,000  Level Chicago Center
Sun 08:35:25 AM 44.0464 -89.8883 302° West 403 464 32,000  Level Chicago Center
Sun 08:36:26 AM 44.1081 -90.0200 303° West 405 466 32,000 -146 Level Chicago Center
Sun 08:37:28 AM 44.1767 -90.1456 307° West 408 470 31,700 -927 Descending Chicago Center
Sun 08:38:29 AM 44.2478 -90.3117 301° West 428 493 30,100 -1,415 Descending Chicago Center
Sun 08:39:31 AM 44.3069 -90.4514 301° West 425 489 28,800 -1,219 Descending Chicago Center
Sun 08:40:37 AM 44.3667 -90.5911 301° West 410 472 27,500 -1,228 Descending Minneapolis Center
Sun 08:41:38 AM 44.4217 -90.7269 300° West 402 463 26,200 -1,328 Descending Minneapolis Center
Sun 08:42:39 AM 44.4758 -90.8589 300° West 396 456 24,800 -1,082 Descending Minneapolis Center
Sun 08:43:40 AM 44.5339 -90.9981 300° West 387 445 24,000 -393 Descending Minneapolis Center
Sun 08:44:41 AM 44.5844 -91.1194 300° West 370 426 24,000 -98 Level Minneapolis Center
Sun 08:45:42 AM 44.6339 -91.2433 299° West 365 420 23,800 -885 Descending Minneapolis Center
Sun 08:46:43 AM 44.6864 -91.3719 300° West 375 432 22,200 -1,525 Descending Minneapolis Center
Sun 08:47:44 AM 44.7381 -91.4989 300° West 377 434 20,700 -1,426 Descending Minneapolis Center
Sun 08:48:45 AM 44.7861 -91.6214 299° West 366 421 19,300 -1,475 Descending Minneapolis Center
Sun 08:49:46 AM 44.8425 -91.7625 299° West 351 404 17,700 -1,328 Descending Minneapolis Center
Sun 08:50:47 AM 44.8919 -91.8850 300° West 358 412 16,600 -1,366 Descending Minneapolis Center
Sun 08:51:49 AM 44.9400 -92.0058 299° West 356 410 14,900 -1,756 Descending Minneapolis Center
Sun 08:52:50 AM 44.9867 -92.1231 299° West 345 397 13,000 -1,770 Descending Minneapolis Center
Sun 08:53:51 AM 45.0300 -92.2344 299° West 329 379 11,300 -984 Descending Minneapolis Center
Sun 08:54:52 AM 45.0375 -92.3569 275° West 331 381 11,000 -689 Descending Minneapolis Center
Sun 08:55:53 AM 45.0197 -92.4717 258° West 301 346 9,900 -1,082 Descending Minneapolis Center
Sun 08:56:54 AM 44.9761 -92.5583 235° Southwest 277 319 8,800 -1,180 Descending Minneapolis Center
Sun 08:57:55 AM 44.9303 -92.6411 232° Southwest 270 311 7,500 -885 Descending Minneapolis Center
Sun 08:58:56 AM 44.8861 -92.7231 233° Southwest 264 304 7,000 -1,230 Descending Minneapolis Center
Sun 08:59:57 AM 44.8436 -92.8006 232° Southwest 252 290 5,000 -1,475 Descending Minneapolis Center
Sun 09:00:58 AM 44.7944 -92.8931 233° Southwest 243 280 4,000 -492 Descending Minneapolis Center
Sun 09:01:59 AM 44.7950 -92.9594 271° West 178 205 4,000 -148 Level Minneapolis Center
Sun 09:03:00 AM 44.8056 -93.0272 282° West 178 205 3,700 -590 Descending Minneapolis Center
Sun 09:04:01 AM 44.8325 -93.0792 306° West 168 193 2,800 -885 Descending Minneapolis Center
Sun 09:05:02 AM 44.8536 -93.1308 300° West 155 178 1,900 -787 Descending Minneapolis Center
Sun 09:06:03 AM 44.8742 -93.1775 302° West 144 166 1,200 -689 Descending Minneapolis Center
Sun 09:08:00 AM 44.8667 -93.2167 245° Southwest  Level FlightAware Approximate

Login

Don't have an account? Register now (free) for customized features, flight alerts, and more!